Time;durP1;ratioP1;P1;durP2;ratioP2;P2;SDS_P1;SDS_P2;PMS_P1;PMS_P2;Temp;Humidity;BMP_temperature;BMP_pressure;BME280_temperature;BME280_humidity;BME280_pressure;Samples;Min_cycle;Max_cycle;Signal;HPM_P1;HPM_P2
2022/04/09 00:02:24;;;;;;;0.40;0.40;;;5.60;99.90;;;;;;5001101;28;20195;-83
2022/04/09 00:04:49;;;;;;;0.30;0.30;;;5.50;99.90;;;;;;4994675;28;20190;-84
2022/04/09 00:07:15;;;;;;;0.30;0.30;;;5.40;99.90;;;;;;4993640;28;20205;-84
2022/04/09 00:09:41;;;;;;;0.20;0.20;;;5.40;99.90;;;;;;4994420;28;20183;-83
2022/04/09 00:12:08;;;;;;;0.27;0.27;;;5.40;99.90;;;;;;4994315;28;20187;-83
2022/04/09 00:14:33;;;;;;;0.10;0.10;;;5.40;99.90;;;;;;4993973;28;20190;-83
2022/04/09 00:16:59;;;;;;;0.20;0.20;;;5.40;99.90;;;;;;5009144;28;20217;-84
2022/04/09 00:19:25;;;;;;;0.33;0.33;;;5.40;99.90;;;;;;4993876;28;20191;-83
2022/04/09 00:21:50;;;;;;;0.20;0.20;;;5.40;99.90;;;;;;4993518;28;20188;-84
2022/04/09 00:24:16;;;;;;;0.50;0.40;;;5.30;99.90;;;;;;4994071;28;20183;-83
2022/04/09 00:26:42;;;;;;;0.40;0.30;;;5.30;99.90;;;;;;4992816;28;20233;-84
2022/04/09 00:29:08;;;;;;;0.10;0.10;;;5.20;99.90;;;;;;4993905;28;20207;-84
2022/04/09 00:31:33;;;;;;;0.40;0.40;;;5.30;99.90;;;;;;4995088;28;20184;-82
2022/04/09 00:33:59;;;;;;;0.43;0.40;;;5.30;99.90;;;;;;4986395;28;20781;-84
2022/04/09 00:36:25;;;;;;;0.93;0.80;;;5.20;99.90;;;;;;4993337;28;21095;-83
2022/04/09 00:38:51;;;;;;;0.30;0.30;;;5.20;99.90;;;;;;4993892;28;20203;-84
2022/04/09 00:41:17;;;;;;;0.33;0.33;;;5.20;99.90;;;;;;4994503;28;20183;-83
2022/04/09 00:43:43;;;;;;;0.97;0.97;;;5.20;99.90;;;;;;4993932;28;20192;-83
2022/04/09 00:46:12;;;;;;;0.30;0.30;;;5.20;99.90;;;;;;4994912;28;20294;-84
2022/04/09 00:48:38;;;;;;;0.70;0.63;;;5.20;99.90;;;;;;5001637;28;20592;-84
2022/04/09 00:51:04;;;;;;;0.27;0.27;;;5.10;99.90;;;;;;5008873;28;20194;-83
2022/04/09 00:53:39;;;;;;;1.07;0.60;;;5.20;99.90;;;;;;4992258;28;20687;-83
2022/04/09 00:56:15;;;;;;;0.57;0.57;;;5.10;99.90;;;;;;4992773;28;20206;-83
2022/04/09 00:58:48;;;;;;;0.27;0.27;;;5.10;99.90;;;;;;4993144;28;20243;-84
2022/04/09 01:01:14;;;;;;;0.20;0.20;;;5.00;99.90;;;;;;4995187;28;20218;-83
2022/04/09 01:03:40;;;;;;;0.53;0.50;;;5.00;99.90;;;;;;4993458;28;20619;-83
2022/04/09 01:06:07;;;;;;;0.93;0.47;;;4.90;99.90;;;;;;4992393;28;20210;-83
2022/04/09 01:08:33;;;;;;;1.07;0.97;;;5.00;99.90;;;;;;4992996;28;20626;-83
2022/04/09 01:10:59;;;;;;;0.83;0.80;;;5.00;99.90;;;;;;4991647;28;20210;-83
2022/04/09 01:13:24;;;;;;;0.57;0.33;;;5.00;99.90;;;;;;4992514;28;20187;-83
2022/04/09 01:15:50;;;;;;;1.37;1.27;;;5.00;99.90;;;;;;4991631;28;20203;-83
2022/04/09 01:18:17;;;;;;;1.63;1.50;;;5.10;99.90;;;;;;4993074;28;20269;-84
2022/04/09 01:20:42;;;;;;;0.80;0.80;;;5.00;99.90;;;;;;4991715;28;20191;-83
2022/04/09 01:23:08;;;;;;;0.10;0.10;;;5.00;99.90;;;;;;4992229;28;20187;-83
2022/04/09 01:25:33;;;;;;;0.10;0.10;;;5.00;99.90;;;;;;4993929;28;20209;-83
2022/04/09 01:27:59;;;;;;;0.43;0.30;;;5.00;99.90;;;;;;4991743;28;20298;-83
2022/04/09 01:30:25;;;;;;;0.30;0.30;;;5.00;99.90;;;;;;5012236;28;20277;-84
2022/04/09 01:32:51;;;;;;;1.17;0.87;;;4.90;99.90;;;;;;4994919;28;20211;-84
2022/04/09 01:35:16;;;;;;;0.40;0.40;;;4.90;99.90;;;;;;4995798;28;20219;-83
2022/04/09 01:37:42;;;;;;;0.40;0.40;;;4.90;99.90;;;;;;4995528;28;20192;-83
2022/04/09 01:40:09;;;;;;;3.00;0.70;;;4.90;99.90;;;;;;4997161;28;20223;-84
2022/04/09 01:42:36;;;;;;;0.23;0.20;;;5.00;99.90;;;;;;5012135;28;20192;-83
2022/04/09 01:45:03;;;;;;;0.87;0.50;;;4.90;99.90;;;;;;4997744;28;20310;-84
2022/04/09 01:47:28;;;;;;;3.23;1.60;;;4.90;99.90;;;;;;5012295;28;20199;-83
2022/04/09 01:49:54;;;;;;;0.27;0.27;;;4.90;99.90;;;;;;4995871;28;20189;-84
2022/04/09 01:52:19;;;;;;;0.33;0.33;;;4.80;99.90;;;;;;4996275;28;20212;-83
2022/04/09 01:54:45;;;;;;;0.77;0.30;;;4.90;99.90;;;;;;4996515;28;20200;-83
2022/04/09 01:57:10;;;;;;;0.43;0.43;;;4.90;99.90;;;;;;4994132;28;20187;-83
2022/04/09 01:59:36;;;;;;;0.43;0.43;;;4.70;99.90;;;;;;4995321;28;20186;-84
2022/04/09 02:02:02;;;;;;;0.60;0.50;;;4.80;99.90;;;;;;4996036;28;20194;-84
2022/04/09 02:04:27;;;;;;;0.23;0.23;;;4.90;99.90;;;;;;4994348;28;20611;-83
2022/04/09 02:06:54;;;;;;;0.50;0.50;;;4.90;99.90;;;;;;4995699;28;20232;-84
2022/04/09 02:09:20;;;;;;;0.20;0.20;;;4.90;99.90;;;;;;4995297;28;20211;-83
2022/04/09 02:11:45;;;;;;;0.40;0.40;;;4.90;99.90;;;;;;4994393;28;20186;-83
2022/04/09 02:14:12;;;;;;;0.20;0.20;;;4.90;99.90;;;;;;4994879;28;20190;-83
2022/04/09 02:16:38;;;;;;;0.30;0.30;;;4.90;99.90;;;;;;5009041;28;20829;-84
2022/04/09 02:19:04;;;;;;;0.10;0.10;;;4.90;99.90;;;;;;4993782;28;20226;-83
2022/04/09 02:21:30;;;;;;;0.23;0.23;;;4.90;99.90;;;;;;4992556;28;20189;-83
2022/04/09 02:23:56;;;;;;;0.20;0.20;;;5.00;99.90;;;;;;4991800;28;20240;-84
2022/04/09 02:26:21;;;;;;;0.10;0.10;;;5.10;99.90;;;;;;4992985;28;20690;-84
2022/04/09 02:28:49;;;;;;;0.10;0.10;;;5.10;99.90;;;;;;4994904;28;20205;-83
2022/04/09 02:31:18;;;;;;;0.10;0.10;;;5.20;99.90;;;;;;4993147;28;20189;-83
2022/04/09 02:33:46;;;;;;;0.20;0.20;;;5.20;99.90;;;;;;4993099;28;20762;-84
2022/04/09 02:36:12;;;;;;;0.87;0.57;;;5.30;99.90;;;;;;4993497;28;20761;-84
2022/04/09 02:38:39;;;;;;;0.23;0.23;;;5.40;99.90;;;;;;4995830;28;20185;-83
2022/04/09 02:41:06;;;;;;;0.40;0.40;;;5.30;99.90;;;;;;4992425;28;20207;-84
2022/04/09 02:43:32;;;;;;;0.10;0.10;;;5.30;99.90;;;;;;4993742;28;20179;-83
2022/04/09 02:45:57;;;;;;;0.30;0.30;;;5.30;99.90;;;;;;4993772;28;20712;-83
2022/04/09 02:48:23;;;;;;;0.97;0.30;;;5.20;99.90;;;;;;4992829;28;20223;-83
2022/04/09 02:50:49;;;;;;;0.40;0.40;;;5.20;99.90;;;;;;4992422;28;20187;-83
2022/04/09 02:53:14;;;;;;;0.40;0.40;;;5.20;99.90;;;;;;4992734;28;20195;-83
2022/04/09 02:55:40;;;;;;;0.43;0.43;;;5.10;99.90;;;;;;4993532;28;20211;-84
2022/04/09 02:58:06;;;;;;;0.33;0.33;;;5.10;99.90;;;;;;4993975;28;20244;-83
2022/04/09 03:00:32;;;;;;;1.23;1.07;;;5.10;99.90;;;;;;4993339;28;20194;-84
2022/04/09 03:02:57;;;;;;;0.73;0.60;;;5.00;99.90;;;;;;4992041;28;20576;-83
2022/04/09 03:05:23;;;;;;;0.30;0.30;;;5.00;99.90;;;;;;4993292;28;20245;-83
2022/04/09 03:07:48;;;;;;;0.20;0.20;;;4.90;99.90;;;;;;4993168;28;20227;-84
2022/04/09 03:10:14;;;;;;;0.10;0.10;;;4.90;99.90;;;;;;4991740;28;20211;-82
2022/04/09 03:12:47;;;;;;;0.37;0.37;;;4.70;99.90;;;;;;4993911;28;20557;-84
2022/04/09 03:15:13;;;;;;;0.30;0.27;;;4.50;99.90;;;;;;4992582;28;20242;-84
2022/04/09 03:17:39;;;;;;;0.30;0.30;;;4.50;99.90;;;;;;4992471;28;20201;-84
2022/04/09 03:20:06;;;;;;;0.23;0.23;;;4.50;99.90;;;;;;4991501;28;20575;-84
2022/04/09 03:22:32;;;;;;;0.10;0.10;;;4.60;99.90;;;;;;4993381;28;20195;-83
2022/04/09 03:24:58;;;;;;;1.33;0.83;;;4.60;99.90;;;;;;4992753;28;20216;-84
2022/04/09 03:27:25;;;;;;;0.23;0.23;;;4.60;99.90;;;;;;4999075;28;20195;-83
2022/04/09 03:29:51;;;;;;;0.23;0.23;;;4.50;99.90;;;;;;4991284;28;20183;-84
2022/04/09 03:32:17;;;;;;;0.30;0.30;;;4.50;99.90;;;;;;4990803;28;20196;-84
2022/04/09 03:34:43;;;;;;;0.50;0.40;;;4.60;99.90;;;;;;5007865;28;20552;-83
2022/04/09 03:37:09;;;;;;;1.07;0.30;;;4.70;99.90;;;;;;4990928;28;20179;-83
2022/04/09 03:39:36;;;;;;;0.17;0.17;;;4.70;99.90;;;;;;4992900;28;20201;-84
2022/04/09 03:42:02;;;;;;;3.13;1.50;;;4.60;99.90;;;;;;4991140;28;21123;-84
2022/04/09 03:44:28;;;;;;;0.57;0.53;;;4.60;99.90;;;;;;4991874;28;21140;-83
2022/04/09 03:47:02;;;;;;;0.27;0.27;;;4.60;99.90;;;;;;4991623;28;20200;-83
2022/04/09 03:49:31;;;;;;;0.10;0.10;;;4.70;99.90;;;;;;4992566;28;20233;-83
2022/04/09 03:51:57;;;;;;;0.10;0.10;;;4.60;99.90;;;;;;4991531;28;20194;-83
2022/04/09 03:54:23;;;;;;;0.20;0.20;;;4.70;99.90;;;;;;4982187;28;20221;-82
2022/04/09 03:56:49;;;;;;;0.10;0.10;;;4.70;99.90;;;;;;4990404;28;20232;-83
2022/04/09 03:59:15;;;;;;;0.60;0.60;;;4.70;99.90;;;;;;4988771;28;20198;-83
2022/04/09 04:01:44;;;;;;;0.20;0.20;;;4.70;99.90;;;;;;4992446;28;20211;-83
2022/04/09 04:04:10;;;;;;;0.13;0.13;;;4.80;99.90;;;;;;4990319;28;20278;-82
2022/04/09 04:06:36;;;;;;;2.27;0.33;;;4.80;99.90;;;;;;4983148;28;20218;-83
2022/04/09 04:09:02;;;;;;;0.10;0.10;;;4.70;99.90;;;;;;4994326;28;20209;-83
2022/04/09 04:11:28;;;;;;;0.20;0.20;;;4.80;99.90;;;;;;4994146;28;20191;-83
2022/04/09 04:13:54;;;;;;;0.20;0.20;;;4.90;99.90;;;;;;4993069;28;20195;-82
2022/04/09 04:16:19;;;;;;;0.17;0.17;;;4.90;99.90;;;;;;4992619;28;20215;-83
2022/04/09 04:18:45;;;;;;;0.10;0.10;;;4.80;99.90;;;;;;4993425;28;20336;-83
2022/04/09 04:21:11;;;;;;;0.20;0.20;;;4.80;99.90;;;;;;4993230;28;20199;-83
2022/04/09 04:23:36;;;;;;;0.10;0.10;;;4.70;99.90;;;;;;4992166;28;21048;-83
2022/04/09 04:26:02;;;;;;;0.13;0.13;;;4.70;99.90;;;;;;4993754;28;20297;-83
2022/04/09 04:28:28;;;;;;;0.10;0.10;;;4.70;99.90;;;;;;4991001;28;20220;-82
2022/04/09 04:30:54;;;;;;;0.17;0.17;;;4.70;99.90;;;;;;4989780;28;20203;-83
2022/04/09 04:33:19;;;;;;;0.10;0.10;;;4.60;99.90;;;;;;4990302;28;20183;-82
2022/04/09 04:35:45;;;;;;;0.10;0.10;;;4.60;99.90;;;;;;4990702;28;20607;-82
2022/04/09 04:38:11;;;;;;;0.20;0.20;;;4.60;99.90;;;;;;4991886;28;20198;-83
2022/04/09 04:40:37;;;;;;;1.43;0.47;;;4.60;99.90;;;;;;4990729;28;20228;-83
2022/04/09 04:43:03;;;;;;;0.43;0.20;;;4.50;99.90;;;;;;4991574;28;20194;-83
2022/04/09 04:45:29;;;;;;;0.13;0.10;;;4.50;99.90;;;;;;5004640;28;20267;-83
2022/04/09 04:47:56;;;;;;;0.00;0.00;;;4.50;99.90;;;;;;4990231;28;20236;-83
2022/04/09 04:50:22;;;;;;;0.10;0.10;;;4.60;99.90;;;;;;5006583;28;20221;-83
2022/04/09 04:52:48;;;;;;;0.43;0.30;;;4.60;99.90;;;;;;4989296;28;20190;-82
2022/04/09 04:55:14;;;;;;;0.10;0.10;;;4.50;99.90;;;;;;4991343;28;20287;-83
2022/04/09 04:57:51;;;;;;;0.23;0.23;;;4.50;99.90;;;;;;4989067;28;20285;-82
2022/04/09 05:00:20;;;;;;;0.77;0.40;;;4.60;99.90;;;;;;4989488;28;20181;-83
2022/04/09 05:02:46;;;;;;;0.00;0.00;;;4.60;99.90;;;;;;4989137;28;20185;-82
2022/04/09 05:05:11;;;;;;;0.10;0.10;;;4.60;99.90;;;;;;4990977;28;20214;-82
2022/04/09 05:07:41;;;;;;;0.10;0.10;;;4.60;99.90;;;;;;4989994;28;20210;-83
2022/04/09 05:10:20;;;;;;;0.10;0.10;;;4.70;99.90;;;;;;4991900;28;20181;-83
2022/04/09 05:12:47;;;;;;;0.20;0.20;;;4.60;99.90;;;;;;5002570;28;20236;-82
2022/04/09 05:15:15;;;;;;;0.73;0.73;;;4.60;99.90;;;;;;5004791;28;20592;-82
2022/04/09 05:17:42;;;;;;;0.10;0.10;;;4.60;99.90;;;;;;4988818;28;20212;-83
2022/04/09 05:20:10;;;;;;;0.20;0.20;;;4.50;99.90;;;;;;4989060;28;20193;-83
2022/04/09 05:22:43;;;;;;;0.00;0.00;;;4.50;99.90;;;;;;4989228;28;20199;-83
2022/04/09 05:25:10;;;;;;;0.20;0.20;;;4.70;99.90;;;;;;4988397;28;20214;-84
2022/04/09 05:27:36;;;;;;;0.10;0.10;;;4.80;99.90;;;;;;4989056;28;20317;-82
2022/04/09 05:30:02;;;;;;;0.10;0.10;;;4.90;99.90;;;;;;4989068;28;20244;-84
2022/04/09 05:32:28;;;;;;;0.10;0.10;;;5.00;99.90;;;;;;4987572;28;20184;-84
2022/04/09 05:34:53;;;;;;;0.00;0.00;;;5.10;99.90;;;;;;4987859;28;20209;-83
2022/04/09 05:37:19;;;;;;;0.20;0.20;;;5.10;99.90;;;;;;4988258;28;20184;-83
2022/04/09 05:39:46;;;;;;;0.30;0.30;;;5.20;99.90;;;;;;4988592;28;20183;-83
2022/04/09 05:42:12;;;;;;;0.10;0.10;;;5.40;99.90;;;;;;4989026;28;20187;-84
2022/04/09 05:44:38;;;;;;;0.50;0.50;;;5.40;99.90;;;;;;4992860;28;20207;-84
2022/04/09 05:47:04;;;;;;;0.20;0.20;;;5.50;99.90;;;;;;4994241;28;20623;-84
2022/04/09 05:49:29;;;;;;;0.10;0.10;;;5.60;99.90;;;;;;4987357;28;20211;-83
2022/04/09 05:51:55;;;;;;;0.10;0.10;;;5.70;99.90;;;;;;4990017;28;20189;-83
2022/04/09 05:54:21;;;;;;;0.47;0.47;;;5.90;99.90;;;;;;4987727;28;20184;-83
2022/04/09 05:56:46;;;;;;;0.00;0.00;;;6.00;99.90;;;;;;4987976;28;20588;-81
2022/04/09 05:59:12;;;;;;;0.20;0.20;;;6.10;99.90;;;;;;4989168;28;20273;-82
2022/04/09 06:01:37;;;;;;;0.10;0.10;;;6.20;99.90;;;;;;4988639;28;20190;-82
2022/04/09 06:04:03;;;;;;;0.50;0.50;;;6.20;99.90;;;;;;4983983;28;21648;-79
2022/04/09 06:06:29;;;;;;;0.00;0.00;;;6.30;99.90;;;;;;4985227;28;20219;-80
2022/04/09 06:08:55;;;;;;;0.10;0.10;;;6.30;99.90;;;;;;4985345;28;20241;-81
2022/04/09 06:11:21;;;;;;;0.10;0.10;;;6.40;99.90;;;;;;4981784;28;20184;-81
2022/04/09 06:13:46;;;;;;;0.10;0.10;;;6.40;99.90;;;;;;4983325;28;20190;-80
2022/04/09 06:16:12;;;;;;;0.10;0.10;;;6.50;99.90;;;;;;4988120;28;20444;-80
2022/04/09 06:18:38;;;;;;;0.33;0.33;;;6.60;99.90;;;;;;4989580;28;20187;-81
2022/04/09 06:21:04;;;;;;;0.93;0.77;;;6.70;99.90;;;;;;4991005;28;20195;-81
2022/04/09 06:23:30;;;;;;;1.60;1.50;;;6.70;99.90;;;;;;4992021;28;20188;-80
2022/04/09 06:25:56;;;;;;;0.50;0.50;;;6.70;99.90;;;;;;4991593;28;20222;-80
2022/04/09 06:28:21;;;;;;;0.20;0.20;;;6.70;99.90;;;;;;4990290;28;21903;-80
2022/04/09 06:30:47;;;;;;;0.53;0.53;;;6.80;99.90;;;;;;4989936;28;20649;-81
2022/04/09 06:33:13;;;;;;;0.33;0.30;;;6.90;99.90;;;;;;4990554;28;20209;-81
2022/04/09 06:35:38;;;;;;;0.10;0.10;;;6.90;99.90;;;;;;4991963;28;20629;-81
2022/04/09 06:38:04;;;;;;;0.20;0.20;;;6.90;99.90;;;;;;4989509;28;20206;-81
2022/04/09 06:40:29;;;;;;;0.20;0.20;;;6.80;99.90;;;;;;4991524;28;20196;-81
2022/04/09 06:42:56;;;;;;;0.10;0.10;;;6.60;99.90;;;;;;4992018;28;20219;-79
2022/04/09 06:45:22;;;;;;;0.23;0.23;;;6.50;99.90;;;;;;4989137;28;20253;-80
2022/04/09 06:47:47;;;;;;;1.13;0.53;;;6.50;99.90;;;;;;4990325;28;20209;-80
2022/04/09 06:50:14;;;;;;;0.20;0.20;;;6.50;99.90;;;;;;4987191;28;20195;-80
2022/04/09 06:52:40;;;;;;;0.10;0.10;;;6.50;99.90;;;;;;4988711;28;20649;-80
2022/04/09 06:55:09;;;;;;;0.20;0.20;;;6.50;99.90;;;;;;4990597;28;20254;-80
2022/04/09 06:57:35;;;;;;;0.10;0.10;;;6.80;99.90;;;;;;4989465;28;20187;-79
2022/04/09 07:00:03;;;;;;;0.40;0.10;;;6.80;99.90;;;;;;4981270;28;20302;-80
2022/04/09 07:02:30;;;;;;;0.20;0.20;;;7.00;99.90;;;;;;4990154;28;20191;-80
2022/04/09 07:04:55;;;;;;;0.10;0.10;;;7.20;99.90;;;;;;4987080;28;20183;-80
2022/04/09 07:07:26;;;;;;;0.10;0.10;;;7.20;99.90;;;;;;4987934;28;20199;-79
2022/04/09 07:10:05;;;;;;;0.10;0.10;;;7.00;99.90;;;;;;4988157;28;20183;-79
2022/04/09 07:12:31;;;;;;;0.10;0.10;;;7.00;99.90;;;;;;4985510;28;20712;-79
2022/04/09 07:14:57;;;;;;;0.30;0.30;;;7.30;99.90;;;;;;4987181;28;20260;-79
2022/04/09 07:17:24;;;;;;;0.73;0.73;;;7.50;99.90;;;;;;4988041;28;20196;-80
2022/04/09 07:19:50;;;;;;;0.30;0.30;;;7.90;99.90;;;;;;4987903;28;20191;-79
2022/04/09 07:22:16;;;;;;;0.50;0.37;;;7.70;99.90;;;;;;4988651;28;20274;-79
2022/04/09 07:24:41;;;;;;;0.10;0.10;;;7.60;99.90;;;;;;5002935;28;20239;-79
2022/04/09 07:27:07;;;;;;;0.20;0.20;;;7.70;99.90;;;;;;4986832;28;20210;-79
2022/04/09 07:29:33;;;;;;;0.20;0.20;;;7.70;99.90;;;;;;4988305;28;20216;-79
2022/04/09 07:31:58;;;;;;;0.80;0.70;;;7.70;99.90;;;;;;4986181;28;20283;-79
2022/04/09 07:34:24;;;;;;;0.13;0.13;;;7.60;99.90;;;;;;4986448;28;20267;-79
2022/04/09 07:36:49;;;;;;;0.33;0.33;;;7.60;99.90;;;;;;4988082;28;20208;-80
2022/04/09 07:39:15;;;;;;;0.20;0.20;;;7.60;99.90;;;;;;4986463;28;20188;-79
2022/04/09 07:41:41;;;;;;;0.20;0.20;;;7.60;99.90;;;;;;4985696;28;20179;-80
2022/04/09 07:44:06;;;;;;;3.13;0.47;;;7.60;99.90;;;;;;4985120;28;20669;-79
2022/04/09 07:46:32;;;;;;;0.10;0.10;;;7.50;99.90;;;;;;4986788;28;20210;-79
2022/04/09 07:48:58;;;;;;;0.10;0.10;;;7.50;99.90;;;;;;4986946;28;20204;-79
2022/04/09 07:51:23;;;;;;;0.10;0.10;;;7.50;99.90;;;;;;4986766;28;20191;-81
2022/04/09 07:53:49;;;;;;;0.43;0.43;;;7.50;99.90;;;;;;4986823;28;20199;-82
2022/04/09 07:56:15;;;;;;;0.03;0.03;;;7.40;99.90;;;;;;4989009;28;20715;-82
2022/04/09 07:58:43;;;;;;;1.03;0.47;;;7.30;99.90;;;;;;4988259;28;20187;-82
2022/04/09 08:01:09;;;;;;;1.63;0.50;;;7.40;99.90;;;;;;4988076;28;20241;-82
2022/04/09 08:03:34;;;;;;;0.10;0.10;;;7.40;99.90;;;;;;4988646;28;20665;-82
2022/04/09 08:06:00;;;;;;;0.37;0.27;;;7.50;99.90;;;;;;4988163;28;20208;-82
2022/04/09 08:08:25;;;;;;;0.10;0.10;;;7.50;99.90;;;;;;4989119;28;20239;-80
2022/04/09 08:10:51;;;;;;;0.37;0.33;;;7.60;99.90;;;;;;4995091;28;20202;-80
2022/04/09 08:13:17;;;;;;;0.40;0.30;;;7.70;99.90;;;;;;4986488;28;20222;-81
2022/04/09 08:15:44;;;;;;;0.93;0.93;;;7.90;99.90;;;;;;4985981;28;20199;-81
2022/04/09 08:18:11;;;;;;;0.30;0.20;;;7.80;99.90;;;;;;4986948;28;20194;-80
2022/04/09 08:20:37;;;;;;;0.20;0.20;;;7.80;99.90;;;;;;4988474;28;20266;-80
2022/04/09 08:23:03;;;;;;;0.23;0.23;;;7.80;99.90;;;;;;4989176;28;20183;-80
2022/04/09 08:25:29;;;;;;;0.30;0.30;;;7.90;99.90;;;;;;4988628;28;20257;-80
2022/04/09 08:27:55;;;;;;;2.43;0.30;;;8.40;99.90;;;;;;4989326;28;20682;-80
2022/04/09 08:30:21;;;;;;;0.20;0.20;;;8.50;99.90;;;;;;4990210;28;20176;-81
2022/04/09 08:32:49;;;;;;;0.33;0.33;;;8.70;99.90;;;;;;4987995;28;20263;-81
2022/04/09 08:35:15;;;;;;;0.10;0.10;;;8.60;99.90;;;;;;4987912;28;20212;-80
2022/04/09 08:37:42;;;;;;;0.30;0.30;;;8.50;99.90;;;;;;4987065;28;20200;-80
2022/04/09 08:40:14;;;;;;;0.40;0.40;;;8.60;99.90;;;;;;4988241;28;20679;-80
2022/04/09 08:42:39;;;;;;;0.20;0.20;;;8.60;99.90;;;;;;5003684;28;20274;-80
2022/04/09 08:45:05;;;;;;;0.27;0.27;;;8.70;99.90;;;;;;4989596;28;20288;-80
2022/04/09 08:47:33;;;;;;;0.13;0.13;;;8.60;99.90;;;;;;4989251;28;20197;-80
2022/04/09 08:49:59;;;;;;;0.27;0.27;;;8.70;99.90;;;;;;4989250;28;20275;-80
2022/04/09 08:52:25;;;;;;;0.10;0.10;;;8.90;99.90;;;;;;4987545;28;20275;-80
2022/04/09 08:54:51;;;;;;;0.13;0.13;;;8.80;99.90;;;;;;4988482;28;20176;-80
2022/04/09 08:57:16;;;;;;;0.10;0.10;;;9.10;99.90;;;;;;4987243;28;20194;-80
2022/04/09 08:59:42;;;;;;;0.20;0.20;;;9.20;99.90;;;;;;4987060;28;20261;-81
2022/04/09 09:02:07;;;;;;;9.23;0.63;;;9.30;99.90;;;;;;4987370;28;20189;-80
2022/04/09 09:04:34;;;;;;;0.43;0.37;;;9.20;99.90;;;;;;4988428;28;20658;-80
2022/04/09 09:07:20;;;;;;;0.40;0.10;;;9.20;99.90;;;;;;4987247;28;20243;-81
2022/04/09 09:09:46;;;;;;;0.10;0.10;;;9.30;99.90;;;;;;4988528;28;20585;-80
2022/04/09 09:12:12;;;;;;;1.50;0.37;;;9.20;99.90;;;;;;4986270;28;20274;-80
2022/04/09 09:14:44;;;;;;;0.30;0.30;;;9.30;99.90;;;;;;4985606;28;20188;-80
2022/04/09 09:17:11;;;;;;;0.20;0.20;;;9.50;99.90;;;;;;4987026;28;20181;-80
2022/04/09 09:19:48;;;;;;;0.10;0.10;;;9.50;99.90;;;;;;4985446;28;20263;-80
2022/04/09 09:22:14;;;;;;;0.10;0.10;;;9.50;99.90;;;;;;4985156;28;20186;-80
2022/04/09 09:24:40;;;;;;;0.50;0.43;;;9.80;99.90;;;;;;4986242;28;20193;-80
2022/04/09 09:27:07;;;;;;;0.13;0.13;;;9.80;99.90;;;;;;4988714;28;20262;-80
2022/04/09 09:29:35;;;;;;;0.50;0.23;;;9.90;99.90;;;;;;4986834;28;20221;-80
2022/04/09 09:32:06;;;;;;;0.10;0.10;;;10.00;99.90;;;;;;4987558;28;20252;-80
2022/04/09 09:34:33;;;;;;;0.87;0.23;;;9.90;99.90;;;;;;4987800;28;20185;-80
2022/04/09 09:36:59;;;;;;;0.10;0.10;;;9.90;99.90;;;;;;4987110;28;20246;-80
2022/04/09 09:39:25;;;;;;;0.80;0.43;;;10.00;99.90;;;;;;4988279;28;20225;-80
2022/04/09 09:41:54;;;;;;;0.10;0.10;;;10.10;99.90;;;;;;4979276;28;20225;-80
2022/04/09 09:44:22;;;;;;;0.30;0.20;;;10.00;99.90;;;;;;4989935;28;20659;-80
2022/04/09 09:46:50;;;;;;;0.57;0.20;;;10.50;99.90;;;;;;4986402;28;20292;-80
2022/04/09 09:49:17;;;;;;;0.20;0.20;;;11.00;99.90;;;;;;5004133;28;20220;-80
2022/04/09 09:51:42;;;;;;;0.10;0.10;;;10.70;99.90;;;;;;4990982;28;20194;-81
2022/04/09 09:54:10;;;;;;;0.17;0.17;;;10.50;99.90;;;;;;4991978;28;20186;-80
2022/04/09 09:56:44;;;;;;;0.10;0.10;;;10.70;99.90;;;;;;4989522;28;20218;-79
2022/04/09 09:59:11;;;;;;;0.10;0.10;;;11.30;99.90;;;;;;4989724;28;20213;-79
2022/04/09 10:01:40;;;;;;;0.20;0.20;;;11.60;99.90;;;;;;4988958;28;20190;-79
2022/04/09 10:04:07;;;;;;;0.40;0.40;;;11.60;99.90;;;;;;4989245;28;20198;-79
2022/04/09 10:06:34;;;;;;;0.10;0.10;;;11.50;99.90;;;;;;4989389;28;20203;-79
2022/04/09 10:09:02;;;;;;;0.03;0.03;;;11.70;99.90;;;;;;4989933;28;20698;-79
2022/04/09 10:11:28;;;;;;;1.40;0.30;;;12.00;99.90;;;;;;4989540;28;20211;-80
2022/04/09 10:13:57;;;;;;;0.10;0.10;;;12.50;99.90;;;;;;4988924;28;20190;-78
2022/04/09 10:16:27;;;;;;;0.20;0.20;;;12.90;99.90;;;;;;4993245;28;20207;-79
2022/04/09 10:18:58;;;;;;;0.10;0.10;;;12.60;99.90;;;;;;4988747;28;20188;-79
2022/04/09 10:21:25;;;;;;;0.10;0.10;;;12.30;99.90;;;;;;4988473;28;20275;-79
2022/04/09 10:23:52;;;;;;;0.20;0.20;;;11.90;99.90;;;;;;4988326;28;20198;-79
2022/04/09 10:26:18;;;;;;;0.10;0.10;;;11.90;99.90;;;;;;4990146;28;20207;-80
2022/04/09 10:28:47;;;;;;;0.47;0.20;;;11.90;99.90;;;;;;4993512;28;20219;-80
2022/04/09 10:31:22;;;;;;;0.57;0.57;;;11.40;99.90;;;;;;4993612;28;20198;-80
2022/04/09 10:34:02;;;;;;;0.10;0.10;;;11.20;99.90;;;;;;4989366;28;20187;-80
2022/04/09 10:36:48;;;;;;;0.13;0.13;;;11.10;99.90;;;;;;4989765;28;20221;-80
2022/04/09 10:39:22;;;;;;;0.10;0.10;;;10.70;99.90;;;;;;4992687;28;20671;-80
2022/04/09 10:41:47;;;;;;;0.10;0.10;;;10.00;99.90;;;;;;4990667;28;20196;-80
2022/04/09 10:44:32;;;;;;;0.30;0.30;;;9.30;99.90;;;;;;4990596;28;20577;-80
2022/04/09 10:47:01;;;;;;;0.10;0.10;;;8.00;99.90;;;;;;4982090;28;20257;-80
2022/04/09 10:49:28;;;;;;;0.10;0.10;;;7.30;99.90;;;;;;4990510;28;20216;-80
2022/04/09 10:52:06;;;;;;;0.10;0.10;;;7.20;99.90;;;;;;4989407;28;20279;-80
2022/04/09 10:54:33;;;;;;;0.00;0.00;;;7.00;99.90;;;;;;4990442;28;20192;-80
2022/04/09 10:57:21;;;;;;;0.20;0.20;;;6.50;99.90;;;;;;4990597;28;20219;-80
2022/04/09 10:59:56;;;;;;;0.50;0.30;;;6.40;99.90;;;;;;4988443;28;20188;-80
2022/04/09 11:02:23;;;;;;;0.10;0.10;;;6.30;99.90;;;;;;4988270;28;20675;-80
2022/04/09 11:04:48;;;;;;;0.10;0.10;;;5.90;99.90;;;;;;5007094;28;20278;-80
2022/04/09 11:07:18;;;;;;;0.03;0.03;;;6.00;99.90;;;;;;4993839;28;20265;-80
2022/04/09 11:09:57;;;;;;;0.20;0.10;;;5.90;99.90;;;;;;4994699;28;20265;-80
2022/04/09 11:12:41;;;;;;;0.27;0.27;;;5.70;99.90;;;;;;4992528;28;20191;-80
2022/04/09 11:15:12;;;;;;;0.10;0.10;;;5.80;99.90;;;;;;4993036;28;20359;-83
2022/04/09 11:17:40;;;;;;;0.10;0.10;;;6.10;99.90;;;;;;4985581;28;20567;-82
2022/04/09 11:20:07;;;;;;;0.10;0.10;;;6.40;99.90;;;;;;4992863;28;20226;-82
2022/04/09 11:22:35;;;;;;;0.10;0.10;;;6.80;99.90;;;;;;4994591;28;20255;-84
2022/04/09 11:25:02;;;;;;;0.30;0.20;;;6.90;99.90;;;;;;5010610;28;20191;-81
2022/04/09 11:27:29;;;;;;;0.00;0.00;;;7.40;99.90;;;;;;5008511;28;20184;-82
2022/04/09 11:29:55;;;;;;;0.10;0.10;;;7.60;99.90;;;;;;4993830;28;20183;-82
2022/04/09 11:32:21;;;;;;;0.00;0.00;;;7.50;99.90;;;;;;4993238;28;20556;-82
2022/04/09 11:34:56;;;;;;;0.10;0.10;;;7.40;99.90;;;;;;4993273;28;20200;-82
2022/04/09 11:37:23;;;;;;;0.10;0.10;;;7.20;99.90;;;;;;4992725;28;20191;-82
2022/04/09 11:39:50;;;;;;;0.10;0.10;;;7.30;99.90;;;;;;4993771;28;20555;-82
2022/04/09 11:42:16;;;;;;;0.10;0.10;;;7.40;99.90;;;;;;4993348;28;20237;-82
2022/04/09 11:44:42;;;;;;;0.10;0.10;;;7.70;99.90;;;;;;4992531;28;20188;-81
2022/04/09 11:47:18;;;;;;;0.10;0.10;;;7.90;99.90;;;;;;4992498;28;20688;-82
2022/04/09 11:49:47;;;;;;;0.10;0.10;;;8.20;99.90;;;;;;4991732;28;20325;-81
2022/04/09 11:52:13;;;;;;;0.10;0.10;;;8.80;99.90;;;;;;4999985;28;20242;-81
2022/04/09 11:54:39;;;;;;;0.10;0.10;;;8.80;99.90;;;;;;4988681;28;20184;-81
2022/04/09 11:57:11;;;;;;;0.20;0.20;;;9.20;99.90;;;;;;4997683;28;20847;-81
2022/04/09 11:59:37;;;;;;;0.10;0.10;;;9.50;99.90;;;;;;4989017;28;20278;-79
2022/04/09 12:02:03;;;;;;;0.00;0.00;;;9.60;99.90;;;;;;4979351;28;20364;-79
2022/04/09 12:04:34;;;;;;;0.20;0.20;;;9.80;99.90;;;;;;4990949;28;20199;-79
2022/04/09 12:07:04;;;;;;;0.10;0.10;;;9.90;99.90;;;;;;4989782;28;20221;-79
2022/04/09 12:09:30;;;;;;;0.20;0.20;;;10.10;99.90;;;;;;4987326;28;20328;-79
2022/04/09 12:12:00;;;;;;;0.57;0.30;;;10.30;99.90;;;;;;4988137;28;20186;-79
2022/04/09 12:14:27;;;;;;;0.10;0.10;;;10.40;99.90;;;;;;4986420;28;20195;-79
2022/04/09 12:16:53;;;;;;;0.63;0.20;;;10.70;99.90;;;;;;4987382;28;21292;-83
2022/04/09 12:19:29;;;;;;;0.10;0.10;;;10.80;99.90;;;;;;4987536;28;20191;-83
2022/04/09 12:21:55;;;;;;;0.93;0.20;;;10.80;99.90;;;;;;4989275;28;20190;-83
2022/04/09 12:24:21;;;;;;;0.10;0.10;;;11.00;99.90;;;;;;4985248;28;20203;-83
2022/04/09 12:26:55;;;;;;;0.13;0.13;;;11.30;99.90;;;;;;4987273;28;20217;-82
2022/04/09 12:29:24;;;;;;;0.10;0.10;;;11.60;99.90;;;;;;4987180;28;20213;-83
2022/04/09 12:31:51;;;;;;;0.20;0.20;;;12.10;99.90;;;;;;4988463;28;20231;-83
2022/04/09 12:34:18;;;;;;;0.10;0.10;;;12.40;99.90;;;;;;4988497;28;20201;-83
2022/04/09 12:37:01;;;;;;;0.43;0.43;;;11.90;99.90;;;;;;4990257;28;20207;-83
2022/04/09 12:39:28;;;;;;;0.20;0.10;;;11.90;99.90;;;;;;4988868;28;20184;-83
2022/04/09 12:41:54;;;;;;;0.10;0.10;;;11.90;99.90;;;;;;4987804;28;20193;-82
2022/04/09 12:44:31;;;;;;;0.20;0.20;;;12.40;99.90;;;;;;4990861;28;20187;-83
2022/04/09 12:46:57;;;;;;;0.20;0.20;;;12.80;99.90;;;;;;4989152;28;20243;-82
2022/04/09 12:49:30;;;;;;;0.10;0.10;;;12.40;99.90;;;;;;4990579;28;20297;-83
2022/04/09 12:51:57;;;;;;;0.73;0.20;;;12.70;99.90;;;;;;4988910;28;20291;-83
2022/04/09 12:54:24;;;;;;;0.10;0.10;;;12.80;99.90;;;;;;4989946;28;20188;-83
2022/04/09 12:56:50;;;;;;;0.37;0.37;;;12.60;99.90;;;;;;4987939;28;20548;-83